sensor_id;sensor_type;location;lat;lon;timestamp;P1;durP1;ratioP1;P2;durP2;ratioP2
66874;SDS011;53784;52.630;4.896;2023-07-16T00:00:59;18.50;;;4.68;;
66874;SDS011;53784;52.630;4.896;2023-07-16T00:03:25;15.73;;;4.72;;
66874;SDS011;53784;52.630;4.896;2023-07-16T00:05:50;16.92;;;4.20;;
66874;SDS011;53784;52.630;4.896;2023-07-16T00:08:16;16.48;;;5.18;;
66874;SDS011;53784;52.630;4.896;2023-07-16T00:10:41;17.40;;;4.57;;
66874;SDS011;53784;52.630;4.896;2023-07-16T00:13:06;17.45;;;4.80;;
66874;SDS011;53784;52.630;4.896;2023-07-16T00:15:32;15.98;;;4.68;;
66874;SDS011;53784;52.630;4.896;2023-07-16T00:17:57;13.65;;;4.43;;
66874;SDS011;53784;52.630;4.896;2023-07-16T00:20:22;12.48;;;4.50;;
66874;SDS011;53784;52.630;4.896;2023-07-16T00:22:51;13.38;;;4.10;;
66874;SDS011;53784;52.630;4.896;2023-07-16T00:25:16;17.83;;;5.05;;
66874;SDS011;53784;52.630;4.896;2023-07-16T00:27:42;11.73;;;4.22;;
66874;SDS011;53784;52.630;4.896;2023-07-16T00:30:07;10.88;;;3.20;;
66874;SDS011;53784;52.630;4.896;2023-07-16T00:32:33;13.30;;;3.83;;
66874;SDS011;53784;52.630;4.896;2023-07-16T00:34:58;12.65;;;3.90;;
66874;SDS011;53784;52.630;4.896;2023-07-16T00:37:24;16.08;;;4.75;;
66874;SDS011;53784;52.630;4.896;2023-07-16T00:39:49;14.48;;;3.83;;
66874;SDS011;53784;52.630;4.896;2023-07-16T00:42:14;14.80;;;4.10;;
66874;SDS011;53784;52.630;4.896;2023-07-16T00:44:40;10.45;;;3.50;;
66874;SDS011;53784;52.630;4.896;2023-07-16T00:47:05;13.10;;;3.67;;
66874;SDS011;53784;52.630;4.896;2023-07-16T00:49:30;15.13;;;4.20;;
66874;SDS011;53784;52.630;4.896;2023-07-16T00:51:56;15.85;;;3.78;;
66874;SDS011;53784;52.630;4.896;2023-07-16T00:54:23;13.68;;;4.03;;
66874;SDS011;53784;52.630;4.896;2023-07-16T00:56:48;11.32;;;3.45;;
66874;SDS011;53784;52.630;4.896;2023-07-16T00:59:13;13.18;;;3.95;;
66874;SDS011;53784;52.630;4.896;2023-07-16T01:01:39;15.27;;;4.30;;
66874;SDS011;53784;52.630;4.896;2023-07-16T01:04:04;16.67;;;4.10;;
66874;SDS011;53784;52.630;4.896;2023-07-16T01:06:34;12.20;;;3.80;;
66874;SDS011;53784;52.630;4.896;2023-07-16T01:09:16;13.18;;;3.65;;
66874;SDS011;53784;52.630;4.896;2023-07-16T01:11:43;17.50;;;4.40;;
66874;SDS011;53784;52.630;4.896;2023-07-16T01:14:09;8.52;;;3.30;;
66874;SDS011;53784;52.630;4.896;2023-07-16T01:16:35;7.95;;;3.17;;
66874;SDS011;53784;52.630;4.896;2023-07-16T01:19:00;11.20;;;3.42;;
66874;SDS011;53784;52.630;4.896;2023-07-16T01:21:29;10.38;;;3.45;;
66874;SDS011;53784;52.630;4.896;2023-07-16T01:27:05;12.85;;;3.22;;
66874;SDS011;53784;52.630;4.896;2023-07-16T01:29:45;12.23;;;3.67;;
66874;SDS011;53784;52.630;4.896;2023-07-16T01:32:15;12.13;;;4.10;;
66874;SDS011;53784;52.630;4.896;2023-07-16T01:34:41;10.68;;;3.45;;
66874;SDS011;53784;52.630;4.896;2023-07-16T01:37:07;14.35;;;4.18;;
66874;SDS011;53784;52.630;4.896;2023-07-16T01:39:32;16.23;;;4.60;;
66874;SDS011;53784;52.630;4.896;2023-07-16T01:41:58;16.08;;;4.65;;
66874;SDS011;53784;52.630;4.896;2023-07-16T01:44:23;19.00;;;4.90;;
66874;SDS011;53784;52.630;4.896;2023-07-16T01:46:51;16.83;;;5.18;;
66874;SDS011;53784;52.630;4.896;2023-07-16T01:49:22;17.48;;;4.80;;
66874;SDS011;53784;52.630;4.896;2023-07-16T01:51:48;19.02;;;4.72;;
66874;SDS011;53784;52.630;4.896;2023-07-16T01:54:13;20.33;;;5.25;;
66874;SDS011;53784;52.630;4.896;2023-07-16T01:56:38;16.27;;;4.90;;
66874;SDS011;53784;52.630;4.896;2023-07-16T01:59:04;16.33;;;4.70;;
66874;SDS011;53784;52.630;4.896;2023-07-16T02:01:29;15.60;;;4.85;;
66874;SDS011;53784;52.630;4.896;2023-07-16T02:03:54;19.83;;;5.80;;
66874;SDS011;53784;52.630;4.896;2023-07-16T02:06:20;14.05;;;5.10;;
66874;SDS011;53784;52.630;4.896;2023-07-16T02:08:45;18.70;;;5.65;;
66874;SDS011;53784;52.630;4.896;2023-07-16T02:11:10;17.90;;;5.78;;
66874;SDS011;53784;52.630;4.896;2023-07-16T02:13:35;16.85;;;5.15;;
66874;SDS011;53784;52.630;4.896;2023-07-16T02:16:01;15.70;;;5.50;;
66874;SDS011;53784;52.630;4.896;2023-07-16T02:18:26;15.98;;;4.38;;
66874;SDS011;53784;52.630;4.896;2023-07-16T02:20:51;14.73;;;5.22;;
66874;SDS011;53784;52.630;4.896;2023-07-16T02:23:17;17.33;;;4.97;;
66874;SDS011;53784;52.630;4.896;2023-07-16T02:25:42;18.35;;;5.30;;
66874;SDS011;53784;52.630;4.896;2023-07-16T02:28:07;17.20;;;4.38;;
66874;SDS011;53784;52.630;4.896;2023-07-16T02:30:33;15.50;;;4.97;;
66874;SDS011;53784;52.630;4.896;2023-07-16T02:32:58;15.13;;;4.88;;
66874;SDS011;53784;52.630;4.896;2023-07-16T02:35:23;17.98;;;5.43;;
66874;SDS011;53784;52.630;4.896;2023-07-16T02:37:48;16.23;;;5.55;;
66874;SDS011;53784;52.630;4.896;2023-07-16T02:40:14;15.73;;;5.28;;
66874;SDS011;53784;52.630;4.896;2023-07-16T02:42:39;17.58;;;5.28;;
66874;SDS011;53784;52.630;4.896;2023-07-16T02:45:05;18.77;;;5.57;;
66874;SDS011;53784;52.630;4.896;2023-07-16T02:47:30;19.35;;;5.05;;
66874;SDS011;53784;52.630;4.896;2023-07-16T02:49:56;14.13;;;4.88;;
66874;SDS011;53784;52.630;4.896;2023-07-16T02:52:21;12.85;;;4.82;;
66874;SDS011;53784;52.630;4.896;2023-07-16T02:54:46;14.02;;;5.00;;
66874;SDS011;53784;52.630;4.896;2023-07-16T02:57:11;15.13;;;4.55;;
66874;SDS011;53784;52.630;4.896;2023-07-16T02:59:37;17.35;;;5.40;;
66874;SDS011;53784;52.630;4.896;2023-07-16T03:02:02;18.40;;;5.18;;
66874;SDS011;53784;52.630;4.896;2023-07-16T03:04:28;15.23;;;4.88;;
66874;SDS011;53784;52.630;4.896;2023-07-16T03:06:53;16.30;;;5.35;;
66874;SDS011;53784;52.630;4.896;2023-07-16T03:09:18;17.20;;;4.60;;
66874;SDS011;53784;52.630;4.896;2023-07-16T03:11:44;16.77;;;4.70;;
66874;SDS011;53784;52.630;4.896;2023-07-16T03:14:09;17.58;;;4.28;;
66874;SDS011;53784;52.630;4.896;2023-07-16T03:16:34;15.55;;;5.07;;
66874;SDS011;53784;52.630;4.896;2023-07-16T03:18:59;20.80;;;5.35;;
66874;SDS011;53784;52.630;4.896;2023-07-16T03:21:25;13.13;;;4.88;;
66874;SDS011;53784;52.630;4.896;2023-07-16T03:23:50;13.88;;;4.65;;
66874;SDS011;53784;52.630;4.896;2023-07-16T03:26:15;14.43;;;5.28;;
66874;SDS011;53784;52.630;4.896;2023-07-16T03:28:41;15.02;;;4.88;;
66874;SDS011;53784;52.630;4.896;2023-07-16T03:31:06;16.73;;;5.20;;
66874;SDS011;53784;52.630;4.896;2023-07-16T03:33:31;16.13;;;5.32;;
66874;SDS011;53784;52.630;4.896;2023-07-16T03:35:57;15.27;;;4.65;;
66874;SDS011;53784;52.630;4.896;2023-07-16T03:38:22;15.18;;;5.35;;
66874;SDS011;53784;52.630;4.896;2023-07-16T03:40:48;17.52;;;4.82;;
66874;SDS011;53784;52.630;4.896;2023-07-16T03:43:14;15.90;;;5.00;;
66874;SDS011;53784;52.630;4.896;2023-07-16T03:45:39;15.32;;;4.90;;
66874;SDS011;53784;52.630;4.896;2023-07-16T03:48:05;18.98;;;5.38;;
66874;SDS011;53784;52.630;4.896;2023-07-16T03:50:30;16.70;;;4.28;;
66874;SDS011;53784;52.630;4.896;2023-07-16T03:52:55;17.83;;;4.68;;
66874;SDS011;53784;52.630;4.896;2023-07-16T03:55:21;16.83;;;5.25;;
66874;SDS011;53784;52.630;4.896;2023-07-16T03:57:46;12.80;;;4.88;;
66874;SDS011;53784;52.630;4.896;2023-07-16T04:00:11;18.33;;;5.57;;
66874;SDS011;53784;52.630;4.896;2023-07-16T04:02:37;19.10;;;4.50;;
66874;SDS011;53784;52.630;4.896;2023-07-16T04:05:02;15.70;;;4.90;;
66874;SDS011;53784;52.630;4.896;2023-07-16T04:07:28;17.60;;;5.15;;
66874;SDS011;53784;52.630;4.896;2023-07-16T04:09:53;13.05;;;4.47;;
66874;SDS011;53784;52.630;4.896;2023-07-16T04:12:18;15.35;;;4.28;;
66874;SDS011;53784;52.630;4.896;2023-07-16T04:14:44;14.52;;;3.67;;
66874;SDS011;53784;52.630;4.896;2023-07-16T04:17:09;16.42;;;4.15;;
66874;SDS011;53784;52.630;4.896;2023-07-16T04:19:34;17.17;;;3.95;;
66874;SDS011;53784;52.630;4.896;2023-07-16T04:22:00;18.60;;;4.65;;
66874;SDS011;53784;52.630;4.896;2023-07-16T04:24:25;16.67;;;4.30;;
66874;SDS011;53784;52.630;4.896;2023-07-16T04:26:52;16.15;;;4.32;;
66874;SDS011;53784;52.630;4.896;2023-07-16T04:29:17;13.70;;;4.40;;
66874;SDS011;53784;52.630;4.896;2023-07-16T04:31:43;13.30;;;4.32;;
66874;SDS011;53784;52.630;4.896;2023-07-16T04:34:08;13.18;;;4.38;;
66874;SDS011;53784;52.630;4.896;2023-07-16T04:36:33;12.88;;;4.25;;
66874;SDS011;53784;52.630;4.896;2023-07-16T04:38:59;14.05;;;4.18;;
66874;SDS011;53784;52.630;4.896;2023-07-16T04:41:24;15.07;;;4.32;;
66874;SDS011;53784;52.630;4.896;2023-07-16T04:43:49;14.30;;;4.70;;
66874;SDS011;53784;52.630;4.896;2023-07-16T04:46:15;12.93;;;4.05;;
66874;SDS011;53784;52.630;4.896;2023-07-16T04:48:41;13.32;;;4.30;;
66874;SDS011;53784;52.630;4.896;2023-07-16T04:51:06;13.63;;;3.88;;
66874;SDS011;53784;52.630;4.896;2023-07-16T04:53:32;18.75;;;4.00;;
66874;SDS011;53784;52.630;4.896;2023-07-16T04:55:57;12.30;;;3.80;;
66874;SDS011;53784;52.630;4.896;2023-07-16T04:58:22;15.05;;;4.10;;
66874;SDS011;53784;52.630;4.896;2023-07-16T05:00:48;14.40;;;4.25;;
66874;SDS011;53784;52.630;4.896;2023-07-16T05:03:14;20.92;;;4.68;;
66874;SDS011;53784;52.630;4.896;2023-07-16T05:05:39;21.42;;;4.60;;
66874;SDS011;53784;52.630;4.896;2023-07-16T05:08:04;11.98;;;3.85;;
66874;SDS011;53784;52.630;4.896;2023-07-16T05:10:30;13.80;;;4.32;;
66874;SDS011;53784;52.630;4.896;2023-07-16T05:12:55;12.88;;;4.07;;
66874;SDS011;53784;52.630;4.896;2023-07-16T05:15:20;10.60;;;3.60;;
66874;SDS011;53784;52.630;4.896;2023-07-16T05:17:46;12.38;;;4.32;;
66874;SDS011;53784;52.630;4.896;2023-07-16T05:20:11;12.50;;;3.78;;
66874;SDS011;53784;52.630;4.896;2023-07-16T05:22:36;12.57;;;4.32;;
66874;SDS011;53784;52.630;4.896;2023-07-16T05:25:02;11.50;;;4.13;;
66874;SDS011;53784;52.630;4.896;2023-07-16T05:27:27;18.55;;;4.35;;
66874;SDS011;53784;52.630;4.896;2023-07-16T05:29:53;15.68;;;4.65;;
66874;SDS011;53784;52.630;4.896;2023-07-16T05:32:18;14.50;;;4.82;;
66874;SDS011;53784;52.630;4.896;2023-07-16T05:34:44;16.00;;;5.30;;
66874;SDS011;53784;52.630;4.896;2023-07-16T05:37:09;15.00;;;5.35;;
66874;SDS011;53784;52.630;4.896;2023-07-16T05:39:34;14.25;;;5.38;;
66874;SDS011;53784;52.630;4.896;2023-07-16T05:42:00;13.38;;;4.82;;
66874;SDS011;53784;52.630;4.896;2023-07-16T05:44:27;15.98;;;5.05;;
66874;SDS011;53784;52.630;4.896;2023-07-16T05:46:52;11.85;;;4.80;;
66874;SDS011;53784;52.630;4.896;2023-07-16T05:49:18;13.43;;;4.70;;
66874;SDS011;53784;52.630;4.896;2023-07-16T05:51:43;16.30;;;5.10;;
66874;SDS011;53784;52.630;4.896;2023-07-16T05:54:08;14.05;;;4.70;;
66874;SDS011;53784;52.630;4.896;2023-07-16T05:56:34;14.10;;;4.38;;
66874;SDS011;53784;52.630;4.896;2023-07-16T05:58:59;16.55;;;5.03;;
66874;SDS011;53784;52.630;4.896;2023-07-16T06:01:24;13.23;;;4.88;;
66874;SDS011;53784;52.630;4.896;2023-07-16T06:03:49;15.25;;;5.00;;
66874;SDS011;53784;52.630;4.896;2023-07-16T06:06:15;17.40;;;5.18;;
66874;SDS011;53784;52.630;4.896;2023-07-16T06:08:40;11.05;;;4.82;;
66874;SDS011;53784;52.630;4.896;2023-07-16T06:11:05;18.27;;;5.00;;
66874;SDS011;53784;52.630;4.896;2023-07-16T06:13:31;12.50;;;4.38;;
66874;SDS011;53784;52.630;4.896;2023-07-16T06:15:56;14.25;;;4.38;;
66874;SDS011;53784;52.630;4.896;2023-07-16T06:18:22;14.18;;;4.95;;
66874;SDS011;53784;52.630;4.896;2023-07-16T06:20:47;12.10;;;4.53;;
66874;SDS011;53784;52.630;4.896;2023-07-16T06:23:12;12.35;;;5.03;;
66874;SDS011;53784;52.630;4.896;2023-07-16T06:25:38;11.70;;;4.72;;
66874;SDS011;53784;52.630;4.896;2023-07-16T06:28:05;10.80;;;4.32;;
66874;SDS011;53784;52.630;4.896;2023-07-16T06:30:31;11.77;;;4.35;;
66874;SDS011;53784;52.630;4.896;2023-07-16T06:32:57;12.43;;;4.57;;
66874;SDS011;53784;52.630;4.896;2023-07-16T06:35:23;10.73;;;4.38;;
66874;SDS011;53784;52.630;4.896;2023-07-16T06:37:48;11.02;;;4.45;;
66874;SDS011;53784;52.630;4.896;2023-07-16T06:40:13;9.13;;;4.30;;
66874;SDS011;53784;52.630;4.896;2023-07-16T06:42:39;18.60;;;5.10;;
66874;SDS011;53784;52.630;4.896;2023-07-16T06:45:04;14.15;;;5.30;;
66874;SDS011;53784;52.630;4.896;2023-07-16T06:47:30;14.65;;;5.25;;
66874;SDS011;53784;52.630;4.896;2023-07-16T06:49:55;16.13;;;5.07;;
66874;SDS011;53784;52.630;4.896;2023-07-16T06:52:21;11.75;;;4.60;;
66874;SDS011;53784;52.630;4.896;2023-07-16T06:54:47;16.00;;;5.50;;
66874;SDS011;53784;52.630;4.896;2023-07-16T06:57:13;12.40;;;5.22;;
66874;SDS011;53784;52.630;4.896;2023-07-16T06:59:38;13.43;;;5.05;;
66874;SDS011;53784;52.630;4.896;2023-07-16T07:02:04;15.30;;;5.70;;
66874;SDS011;53784;52.630;4.896;2023-07-16T07:04:30;12.23;;;4.93;;
66874;SDS011;53784;52.630;4.896;2023-07-16T07:06:55;18.63;;;5.57;;
66874;SDS011;53784;52.630;4.896;2023-07-16T07:09:20;17.67;;;5.63;;
66874;SDS011;53784;52.630;4.896;2023-07-16T07:11:46;16.52;;;5.05;;
66874;SDS011;53784;52.630;4.896;2023-07-16T07:14:11;14.20;;;5.20;;
66874;SDS011;53784;52.630;4.896;2023-07-16T07:16:36;14.07;;;4.85;;
66874;SDS011;53784;52.630;4.896;2023-07-16T07:19:02;13.13;;;4.63;;
66874;SDS011;53784;52.630;4.896;2023-07-16T07:21:27;15.88;;;4.93;;
66874;SDS011;53784;52.630;4.896;2023-07-16T07:23:52;13.88;;;4.57;;
66874;SDS011;53784;52.630;4.896;2023-07-16T07:26:18;13.05;;;5.03;;
66874;SDS011;53784;52.630;4.896;2023-07-16T07:28:43;13.82;;;4.72;;
66874;SDS011;53784;52.630;4.896;2023-07-16T07:31:08;12.18;;;4.47;;
66874;SDS011;53784;52.630;4.896;2023-07-16T07:33:33;12.50;;;4.45;;
66874;SDS011;53784;52.630;4.896;2023-07-16T07:35:59;13.45;;;4.53;;
66874;SDS011;53784;52.630;4.896;2023-07-16T07:38:24;12.63;;;4.22;;
66874;SDS011;53784;52.630;4.896;2023-07-16T07:40:49;14.07;;;4.00;;
66874;SDS011;53784;52.630;4.896;2023-07-16T07:43:15;16.90;;;3.58;;
66874;SDS011;53784;52.630;4.896;2023-07-16T07:45:40;15.60;;;4.68;;
66874;SDS011;53784;52.630;4.896;2023-07-16T07:48:05;12.23;;;4.05;;
66874;SDS011;53784;52.630;4.896;2023-07-16T07:50:31;13.20;;;4.35;;
66874;SDS011;53784;52.630;4.896;2023-07-16T07:52:56;15.63;;;4.43;;
66874;SDS011;53784;52.630;4.896;2023-07-16T07:55:21;12.80;;;4.40;;
66874;SDS011;53784;52.630;4.896;2023-07-16T07:57:47;11.95;;;4.20;;
66874;SDS011;53784;52.630;4.896;2023-07-16T08:00:12;11.75;;;3.78;;
66874;SDS011;53784;52.630;4.896;2023-07-16T08:02:38;12.05;;;4.50;;
66874;SDS011;53784;52.630;4.896;2023-07-16T08:05:03;16.10;;;4.90;;
66874;SDS011;53784;52.630;4.896;2023-07-16T08:07:29;10.38;;;4.05;;
66874;SDS011;53784;52.630;4.896;2023-07-16T08:09:55;13.07;;;4.50;;
66874;SDS011;53784;52.630;4.896;2023-07-16T08:12:20;13.48;;;4.50;;
66874;SDS011;53784;52.630;4.896;2023-07-16T08:14:45;12.05;;;4.68;;
66874;SDS011;53784;52.630;4.896;2023-07-16T08:17:10;12.23;;;4.65;;
66874;SDS011;53784;52.630;4.896;2023-07-16T08:19:36;13.52;;;4.68;;
66874;SDS011;53784;52.630;4.896;2023-07-16T08:22:02;12.48;;;4.68;;
66874;SDS011;53784;52.630;4.896;2023-07-16T08:24:28;13.88;;;5.00;;
66874;SDS011;53784;52.630;4.896;2023-07-16T08:26:53;14.38;;;4.43;;
66874;SDS011;53784;52.630;4.896;2023-07-16T08:29:18;13.35;;;4.28;;
66874;SDS011;53784;52.630;4.896;2023-07-16T08:31:44;13.43;;;4.43;;
66874;SDS011;53784;52.630;4.896;2023-07-16T08:34:09;13.07;;;4.18;;
66874;SDS011;53784;52.630;4.896;2023-07-16T08:36:35;13.07;;;4.73;;
66874;SDS011;53784;52.630;4.896;2023-07-16T08:39:01;12.65;;;4.50;;
66874;SDS011;53784;52.630;4.896;2023-07-16T08:41:26;11.75;;;4.35;;
66874;SDS011;53784;52.630;4.896;2023-07-16T08:43:52;12.57;;;3.97;;
66874;SDS011;53784;52.630;4.896;2023-07-16T08:46:18;11.90;;;4.32;;
66874;SDS011;53784;52.630;4.896;2023-07-16T08:48:44;12.93;;;4.13;;
66874;SDS011;53784;52.630;4.896;2023-07-16T08:51:10;10.98;;;3.63;;
66874;SDS011;53784;52.630;4.896;2023-07-16T08:53:36;11.68;;;3.40;;
66874;SDS011;53784;52.630;4.896;2023-07-16T08:56:01;12.95;;;3.90;;
66874;SDS011;53784;52.630;4.896;2023-07-16T08:58:30;11.77;;;3.90;;
66874;SDS011;53784;52.630;4.896;2023-07-16T09:00:55;12.60;;;3.65;;
66874;SDS011;53784;52.630;4.896;2023-07-16T09:03:21;8.85;;;3.30;;
66874;SDS011;53784;52.630;4.896;2023-07-16T09:05:46;11.25;;;3.85;;
66874;SDS011;53784;52.630;4.896;2023-07-16T09:08:12;11.20;;;3.80;;
66874;SDS011;53784;52.630;4.896;2023-07-16T09:10:40;12.15;;;3.60;;
66874;SDS011;53784;52.630;4.896;2023-07-16T09:13:06;11.38;;;3.40;;
66874;SDS011;53784;52.630;4.896;2023-07-16T09:15:31;11.60;;;3.47;;
66874;SDS011;53784;52.630;4.896;2023-07-16T09:17:58;10.52;;;3.38;;
66874;SDS011;53784;52.630;4.896;2023-07-16T09:20:24;10.63;;;3.72;;
66874;SDS011;53784;52.630;4.896;2023-07-16T09:22:49;8.77;;;3.38;;
66874;SDS011;53784;52.630;4.896;2023-07-16T09:25:15;8.13;;;3.47;;
66874;SDS011;53784;52.630;4.896;2023-07-16T09:27:41;9.18;;;3.80;;
66874;SDS011;53784;52.630;4.896;2023-07-16T09:30:07;9.40;;;3.50;;
66874;SDS011;53784;52.630;4.896;2023-07-16T09:32:40;10.60;;;3.55;;
66874;SDS011;53784;52.630;4.896;2023-07-16T09:37:37;9.98;;;3.47;;
66874;SDS011;53784;52.630;4.896;2023-07-16T09:40:04;10.35;;;3.65;;
66874;SDS011;53784;52.630;4.896;2023-07-16T09:42:33;11.25;;;3.85;;
66874;SDS011;53784;52.630;4.896;2023-07-16T09:45:00;12.68;;;4.45;;
66874;SDS011;53784;52.630;4.896;2023-07-16T09:47:26;12.20;;;3.83;;
66874;SDS011;53784;52.630;4.896;2023-07-16T09:49:51;13.60;;;4.03;;
66874;SDS011;53784;52.630;4.896;2023-07-16T09:52:17;10.02;;;3.75;;
66874;SDS011;53784;52.630;4.896;2023-07-16T09:54:43;9.15;;;2.97;;
66874;SDS011;53784;52.630;4.896;2023-07-16T09:57:10;9.32;;;3.35;;
66874;SDS011;53784;52.630;4.896;2023-07-16T09:59:35;9.95;;;3.20;;
66874;SDS011;53784;52.630;4.896;2023-07-16T10:02:01;8.82;;;3.25;;
66874;SDS011;53784;52.630;4.896;2023-07-16T10:04:36;8.68;;;2.97;;
66874;SDS011;53784;52.630;4.896;2023-07-16T10:07:04;9.70;;;2.88;;
66874;SDS011;53784;52.630;4.896;2023-07-16T10:09:40;11.98;;;3.15;;
66874;SDS011;53784;52.630;4.896;2023-07-16T10:12:18;12.07;;;3.40;;
66874;SDS011;53784;52.630;4.896;2023-07-16T10:14:54;10.07;;;3.45;;
66874;SDS011;53784;52.630;4.896;2023-07-16T10:17:24;9.65;;;3.08;;
66874;SDS011;53784;52.630;4.896;2023-07-16T10:19:51;14.57;;;3.25;;
66874;SDS011;53784;52.630;4.896;2023-07-16T10:22:32;11.70;;;3.20;;
66874;SDS011;53784;52.630;4.896;2023-07-16T10:24:58;13.48;;;3.50;;
66874;SDS011;53784;52.630;4.896;2023-07-16T10:27:27;10.68;;;2.72;;
66874;SDS011;53784;52.630;4.896;2023-07-16T10:29:57;13.68;;;3.15;;
66874;SDS011;53784;52.630;4.896;2023-07-16T10:32:27;12.57;;;3.35;;
66874;SDS011;53784;52.630;4.896;2023-07-16T10:34:53;15.50;;;3.50;;
66874;SDS011;53784;52.630;4.896;2023-07-16T10:37:18;14.02;;;3.60;;
66874;SDS011;53784;52.630;4.896;2023-07-16T10:39:45;13.27;;;3.85;;
66874;SDS011;53784;52.630;4.896;2023-07-16T10:42:15;12.73;;;4.03;;
66874;SDS011;53784;52.630;4.896;2023-07-16T10:44:41;15.13;;;4.03;;
66874;SDS011;53784;52.630;4.896;2023-07-16T10:47:06;9.48;;;3.33;;
66874;SDS011;53784;52.630;4.896;2023-07-16T10:49:31;13.82;;;3.20;;
66874;SDS011;53784;52.630;4.896;2023-07-16T10:51:58;9.97;;;3.10;;
66874;SDS011;53784;52.630;4.896;2023-07-16T10:54:25;11.80;;;3.65;;
66874;SDS011;53784;52.630;4.896;2023-07-16T10:56:50;11.60;;;3.38;;
66874;SDS011;53784;52.630;4.896;2023-07-16T10:59:16;9.88;;;3.17;;
66874;SDS011;53784;52.630;4.896;2023-07-16T11:01:42;11.13;;;3.25;;
66874;SDS011;53784;52.630;4.896;2023-07-16T11:04:07;10.23;;;3.08;;
66874;SDS011;53784;52.630;4.896;2023-07-16T11:06:33;11.40;;;3.17;;
66874;SDS011;53784;52.630;4.896;2023-07-16T11:09:08;11.35;;;3.15;;
66874;SDS011;53784;52.630;4.896;2023-07-16T11:11:33;11.27;;;3.33;;
66874;SDS011;53784;52.630;4.896;2023-07-16T11:13:59;14.50;;;2.90;;
66874;SDS011;53784;52.630;4.896;2023-07-16T11:16:24;12.10;;;3.17;;
66874;SDS011;53784;52.630;4.896;2023-07-16T11:18:50;14.43;;;3.10;;
66874;SDS011;53784;52.630;4.896;2023-07-16T11:21:18;12.05;;;2.63;;
66874;SDS011;53784;52.630;4.896;2023-07-16T11:23:44;12.13;;;3.30;;
66874;SDS011;53784;52.630;4.896;2023-07-16T11:26:09;15.10;;;2.83;;
66874;SDS011;53784;52.630;4.896;2023-07-16T11:28:38;13.07;;;2.40;;
66874;SDS011;53784;52.630;4.896;2023-07-16T11:31:13;11.50;;;2.60;;
66874;SDS011;53784;52.630;4.896;2023-07-16T11:33:41;11.82;;;2.60;;
66874;SDS011;53784;52.630;4.896;2023-07-16T11:36:07;12.52;;;2.30;;
66874;SDS011;53784;52.630;4.896;2023-07-16T11:38:35;12.93;;;2.47;;
66874;SDS011;53784;52.630;4.896;2023-07-16T11:41:02;10.75;;;2.33;;
66874;SDS011;53784;52.630;4.896;2023-07-16T11:43:27;10.65;;;2.42;;
66874;SDS011;53784;52.630;4.896;2023-07-16T11:45:52;8.48;;;2.03;;
66874;SDS011;53784;52.630;4.896;2023-07-16T11:48:17;11.60;;;2.77;;
66874;SDS011;53784;52.630;4.896;2023-07-16T11:50:43;10.43;;;2.30;;
66874;SDS011;53784;52.630;4.896;2023-07-16T11:53:08;10.38;;;2.25;;
66874;SDS011;53784;52.630;4.896;2023-07-16T11:55:33;8.93;;;2.08;;
66874;SDS011;53784;52.630;4.896;2023-07-16T11:58:00;10.68;;;2.17;;
66874;SDS011;53784;52.630;4.896;2023-07-16T12:00:27;12.63;;;2.40;;
66874;SDS011;53784;52.630;4.896;2023-07-16T12:02:53;10.63;;;2.10;;
66874;SDS011;53784;52.630;4.896;2023-07-16T12:05:19;10.52;;;2.28;;
66874;SDS011;53784;52.630;4.896;2023-07-16T12:07:45;10.43;;;2.20;;
66874;SDS011;53784;52.630;4.896;2023-07-16T12:10:10;8.88;;;2.25;;
66874;SDS011;53784;52.630;4.896;2023-07-16T12:12:35;12.63;;;2.90;;
66874;SDS011;53784;52.630;4.896;2023-07-16T12:15:03;8.43;;;2.20;;
66874;SDS011;53784;52.630;4.896;2023-07-16T12:17:29;9.75;;;2.15;;
66874;SDS011;53784;52.630;4.896;2023-07-16T12:19:54;11.53;;;2.50;;
66874;SDS011;53784;52.630;4.896;2023-07-16T12:22:19;12.60;;;2.50;;
66874;SDS011;53784;52.630;4.896;2023-07-16T12:24:45;10.02;;;2.50;;
66874;SDS011;53784;52.630;4.896;2023-07-16T12:27:11;10.15;;;2.30;;
66874;SDS011;53784;52.630;4.896;2023-07-16T12:29:36;12.87;;;2.70;;
66874;SDS011;53784;52.630;4.896;2023-07-16T12:32:01;9.83;;;2.50;;
66874;SDS011;53784;52.630;4.896;2023-07-16T12:34:27;11.48;;;2.53;;
66874;SDS011;53784;52.630;4.896;2023-07-16T12:36:52;8.93;;;2.10;;
66874;SDS011;53784;52.630;4.896;2023-07-16T12:39:19;10.02;;;2.10;;
66874;SDS011;53784;52.630;4.896;2023-07-16T12:41:44;7.93;;;2.00;;
66874;SDS011;53784;52.630;4.896;2023-07-16T12:44:09;11.97;;;2.10;;
66874;SDS011;53784;52.630;4.896;2023-07-16T12:46:35;9.43;;;2.03;;
66874;SDS011;53784;52.630;4.896;2023-07-16T12:49:00;8.53;;;2.10;;
66874;SDS011;53784;52.630;4.896;2023-07-16T12:51:25;9.50;;;2.20;;
66874;SDS011;53784;52.630;4.896;2023-07-16T12:53:51;10.30;;;2.30;;
66874;SDS011;53784;52.630;4.896;2023-07-16T12:56:16;11.43;;;2.28;;
66874;SDS011;53784;52.630;4.896;2023-07-16T12:58:41;12.75;;;2.50;;
66874;SDS011;53784;52.630;4.896;2023-07-16T13:01:06;9.02;;;1.95;;
66874;SDS011;53784;52.630;4.896;2023-07-16T13:03:32;9.02;;;1.95;;
66874;SDS011;53784;52.630;4.896;2023-07-16T13:05:58;11.25;;;2.30;;
66874;SDS011;53784;52.630;4.896;2023-07-16T13:08:23;12.48;;;2.40;;
66874;SDS011;53784;52.630;4.896;2023-07-16T13:10:48;10.85;;;2.30;;
66874;SDS011;53784;52.630;4.896;2023-07-16T13:13:14;12.13;;;2.22;;
66874;SDS011;53784;52.630;4.896;2023-07-16T13:15:39;12.60;;;2.13;;
66874;SDS011;53784;52.630;4.896;2023-07-16T13:18:04;12.23;;;1.90;;
66874;SDS011;53784;52.630;4.896;2023-07-16T13:20:30;12.32;;;1.80;;
66874;SDS011;53784;52.630;4.896;2023-07-16T13:22:55;10.73;;;1.92;;
66874;SDS011;53784;52.630;4.896;2023-07-16T13:25:20;9.27;;;1.85;;
66874;SDS011;53784;52.630;4.896;2023-07-16T13:27:46;8.43;;;1.70;;
66874;SDS011;53784;52.630;4.896;2023-07-16T13:30:11;9.27;;;1.85;;
66874;SDS011;53784;52.630;4.896;2023-07-16T13:32:37;9.45;;;1.80;;
66874;SDS011;53784;52.630;4.896;2023-07-16T13:35:02;10.65;;;2.00;;
66874;SDS011;53784;52.630;4.896;2023-07-16T13:37:28;11.13;;;1.98;;
66874;SDS011;53784;52.630;4.896;2023-07-16T13:39:53;6.25;;;1.42;;
66874;SDS011;53784;52.630;4.896;2023-07-16T13:42:19;8.10;;;1.98;;
66874;SDS011;53784;52.630;4.896;2023-07-16T13:44:44;10.85;;;2.03;;
66874;SDS011;53784;52.630;4.896;2023-07-16T13:47:09;10.65;;;1.88;;
66874;SDS011;53784;52.630;4.896;2023-07-16T13:49:34;8.27;;;1.83;;
66874;SDS011;53784;52.630;4.896;2023-07-16T13:52:00;9.68;;;1.85;;
66874;SDS011;53784;52.630;4.896;2023-07-16T13:54:25;7.65;;;1.80;;
66874;SDS011;53784;52.630;4.896;2023-07-16T13:56:50;8.13;;;1.92;;
66874;SDS011;53784;52.630;4.896;2023-07-16T13:59:16;8.98;;;1.88;;
66874;SDS011;53784;52.630;4.896;2023-07-16T14:01:41;10.15;;;1.80;;
66874;SDS011;53784;52.630;4.896;2023-07-16T14:04:06;11.63;;;1.95;;
66874;SDS011;53784;52.630;4.896;2023-07-16T14:06:32;10.55;;;1.85;;
66874;SDS011;53784;52.630;4.896;2023-07-16T14:08:58;11.15;;;1.77;;
66874;SDS011;53784;52.630;4.896;2023-07-16T14:11:23;6.85;;;1.35;;
66874;SDS011;53784;52.630;4.896;2023-07-16T14:13:49;8.48;;;1.73;;
66874;SDS011;53784;52.630;4.896;2023-07-16T14:16:25;8.40;;;1.60;;
66874;SDS011;53784;52.630;4.896;2023-07-16T14:18:51;12.55;;;1.83;;
66874;SDS011;53784;52.630;4.896;2023-07-16T14:21:17;10.63;;;1.88;;
66874;SDS011;53784;52.630;4.896;2023-07-16T14:23:42;8.65;;;1.70;;
66874;SDS011;53784;52.630;4.896;2023-07-16T14:26:08;10.70;;;1.67;;
66874;SDS011;53784;52.630;4.896;2023-07-16T14:28:33;7.50;;;1.63;;
66874;SDS011;53784;52.630;4.896;2023-07-16T14:30:58;7.30;;;1.50;;
66874;SDS011;53784;52.630;4.896;2023-07-16T14:33:24;8.15;;;1.55;;